T Ville, Kentucky
Current Conditions -  °F | °C
As of 2:35 AM on Sunday 23 Nov 2014 (Local Time) from KGLW Reporting Station
Overcast Overcast  
Wind Chill: 53°   Ceiling: 4000
Heat Index: 53°   Visibility: 10mi
Dew Point: 36°   Wind: 0mph
Humidity: 52%   Direction: NA
Pressure: 30.02"   Gusts: NA
Location:  36.7279°N, 85.6843°W
Report Text: KGLW 230835Z AUTO 00000KT 10SM OVC040 12/02 A3002 RMK AO2 T01150020
Loading
Personal Weather Stations






























Interactive Weather Map New forecast layout! Learn more

10-Day Weather Forecast

Advertisements
Track Severe Weather on mobile